Darstellungsparameter: Aktuell verwendete Einstellungen:
Skalierung der Graphiken ... ?
xyx+y,   Skalierungsfaktor:      Skalierung: Modus: x, Faktor: 1
Darstellungszeitraum ... ?
Vom - - bis: - -   Zeitraum: 01.03.2020 - 03.03.2020
Min/Max/Avg-Anzeige ... ?
Zeige MMA aktuell
Zeige MMA Monat
Zeige MMA alles
Zeige --A aktuell
Zeige --A Monat
Zeige --A alles
Keine MMA-Anzeige
MMA:
Minimum Maximum Average (ber die Originaldaten)
MMA-Basis: 01.03.2020 - 03.03.2020
Quicknavigation für Darstellung... ?
Tage:      1T, 2T, 3T, 5T -1T -2T -3T -5T +1T +2T +3T +5T
Wochen: 1W, 2W, 3W -1W -2W -3W +1W +2W +3W
Monate: 1M, 3M, 6M -1M -3M -6M +1M +3M +6M
Jahre:    1J, 3J, 5J, 10J -1J -3J -5J -10J +1J +3J +5J +10J
Nutze für die Darstellung ... ?
Originaldaten oder Mittelwerte auf ...
Stundenbasis Tagesbasis Wochenbasis
Monatsbasis Jahresbasis      Datenbasis: Original-Daten
Darstellen als:
Statistik (Auto) Statistik J:M      Darstellung:
Zur Graphik,    zurück zur Übersicht aller Sensoren.
 
Tabellarische Datenbersicht: ?
 
Sensor: Nr:Datum:Temp:Abs-Feuchte:Windchill:Wind:
Aussen-T/F 1 01-03-2020 00:00:00 6.4 C 6.18 g/m*3 2.4 C 24.1 km/h
2 01-03-2020 00:05:00 6.8 C 6.19 g/m*3 4.04 C 14.5 km/h
3 01-03-2020 00:10:00 6.9 C 6.24 g/m*3 4.41 C 12.9 km/h
4 01-03-2020 00:15:00 7.1 C 6.24 g/m*3 3.8 C 19.3 km/h
5 01-03-2020 00:20:00 7.2 C 6.28 g/m*3 4.53 C 14.5 km/h
6 01-03-2020 00:25:00 7.1 C 6.16 g/m*3 3.98 C 17.7 km/h
7 01-03-2020 00:30:00 7.1 C 6.24 g/m*3 4.19 C 16.1 km/h
8 01-03-2020 00:35:00 6.9 C 6.16 g/m*3 3.94 C 16.1 km/h
9 01-03-2020 00:40:00 6.8 C 6.12 g/m*3 4.87 C 9.7 km/h
10 01-03-2020 00:45:00 6.7 C 6.08 g/m*3 4.44 C 11.3 km/h
11 01-03-2020 00:50:00 6.7 C 6.15 g/m*3 2.94 C 22.5 km/h
12 01-03-2020 00:55:00 6.7 C 6.15 g/m*3 3.69 C 16.1 km/h
13 01-03-2020 01:00:00 6.7 C 6.15 g/m*3 3.29 C 19.3 km/h
14 01-03-2020 01:05:00 6.6 C 6.11 g/m*3 4.99 C 8.1 km/h
15 01-03-2020 01:10:00 6.5 C 6.07 g/m*3 3.44 C 16.1 km/h
16 01-03-2020 01:15:00 6.4 C 6.04 g/m*3 4.75 C 8.1 km/h
17 01-03-2020 01:20:00 6.4 C 6.11 g/m*3 3.55 C 14.5 km/h
18 01-03-2020 01:25:00 6.4 C 6.11 g/m*3 3.8 C 12.9 km/h
19 01-03-2020 01:30:00 6.4 C 6.11 g/m*3 3.11 C 17.7 km/h
20 01-03-2020 01:35:00 6.3 C 6.07 g/m*3 4.64 C 8.1 km/h
21 01-03-2020 01:40:00 6.3 C 6.07 g/m*3 5.1 C 6.4 km/h
22 01-03-2020 01:45:00 6.2 C 6.1 g/m*3 3.84 C 11.3 km/h
23 01-03-2020 01:50:00 6.2 C 6.1 g/m*3 2.86 C 17.7 km/h
24 01-03-2020 01:55:00 6.2 C 6.1 g/m*3 3.07 C 16.1 km/h
25 01-03-2020 02:00:00 6.2 C 6.1 g/m*3 3.84 C 11.3 km/h
Sensor: Nr:Datum:Temp:Abs-Feuchte:Windchill:Wind:
Aussen-T/F 26 01-03-2020 02:05:00 6.3 C 6.14 g/m*3 3.96 C 11.3 km/h
27 01-03-2020 02:10:00 6.3 C 6.14 g/m*3 4.27 C 9.7 km/h
28 01-03-2020 02:15:00 6.3 C 6.14 g/m*3 3.68 C 12.9 km/h
29 01-03-2020 02:20:00 6.3 C 6.14 g/m*3 3.96 C 11.3 km/h
30 01-03-2020 02:25:00 6.2 C 6.1 g/m*3 4.15 C 9.7 km/h
31 01-03-2020 02:30:00 6.2 C 6.1 g/m*3 4.15 C 9.7 km/h
32 01-03-2020 02:35:00 6.3 C 6.14 g/m*3 4.27 C 9.7 km/h
33 01-03-2020 02:40:00 6.3 C 6.14 g/m*3 3.96 C 11.3 km/h
34 01-03-2020 02:45:00 6.4 C 6.18 g/m*3 3.55 C 14.5 km/h
35 01-03-2020 02:50:00 6.7 C 6.23 g/m*3 3.11 C 20.9 km/h
36 01-03-2020 02:55:00 6.8 C 6.27 g/m*3 3.24 C 20.9 km/h
37 01-03-2020 03:00:00 7 C 6.28 g/m*3 3.67 C 19.3 km/h
38 01-03-2020 03:05:00 7.1 C 6.32 g/m*3 4.19 C 16.1 km/h
39 01-03-2020 03:10:00 7.1 C 6.32 g/m*3 3.62 C 20.9 km/h
40 01-03-2020 03:15:00 7.1 C 6.32 g/m*3 4.41 C 14.5 km/h
41 01-03-2020 03:20:00 7.1 C 6.32 g/m*3 4.92 C 11.3 km/h
42 01-03-2020 03:25:00 7.2 C 6.36 g/m*3 5.04 C 11.3 km/h
43 01-03-2020 03:30:00 7.2 C 6.36 g/m*3 7.2 C 4.8 km/h
44 01-03-2020 03:35:00 7.1 C 6.4 g/m*3 6.02 C 6.4 km/h
45 01-03-2020 03:40:00 7.1 C 6.4 g/m*3 7.1 C 4.8 km/h
46 01-03-2020 03:45:00 7.1 C 6.4 g/m*3 7.1 C 4.8 km/h
47 01-03-2020 03:50:00 7.1 C 6.4 g/m*3 5.23 C 9.7 km/h
48 01-03-2020 03:55:00 7.1 C 6.4 g/m*3 4.92 C 11.3 km/h
49 01-03-2020 04:00:00 7.1 C 6.32 g/m*3 5.58 C 8.1 km/h
50 01-03-2020 04:05:00 7.2 C 6.28 g/m*3 5.04 C 11.3 km/h
Sensor: Nr:Datum:Temp:Abs-Feuchte:Windchill:Wind:
Aussen-T/F 51 01-03-2020 04:10:00 7.2 C 6.2 g/m*3 5.35 C 9.7 km/h
52 01-03-2020 04:15:00 7.2 C 6.12 g/m*3 3.75 C 20.9 km/h
53 01-03-2020 04:20:00 7.3 C 6.16 g/m*3 3.55 C 24.1 km/h
54 01-03-2020 04:25:00 7.3 C 6.16 g/m*3 5.81 C 8.1 km/h
55 01-03-2020 04:30:00 7.4 C 6.2 g/m*3 4.78 C 14.5 km/h
56 01-03-2020 04:35:00 7.4 C 6.12 g/m*3 5.02 C 12.9 km/h
57 01-03-2020 04:40:00 7.4 C 6.2 g/m*3 4.78 C 14.5 km/h
58 01-03-2020 04:45:00 7.4 C 6.12 g/m*3 4.56 C 16.1 km/h
59 01-03-2020 04:50:00 7.4 C 6.12 g/m*3 5.58 C 9.7 km/h
60 01-03-2020 04:55:00 7.4 C 6.12 g/m*3 5.93 C 8.1 km/h
61 01-03-2020 05:00:00 7.4 C 6.12 g/m*3 4 C 20.9 km/h
62 01-03-2020 05:05:00 7.4 C 6.12 g/m*3 3.68 C 24.1 km/h
63 01-03-2020 05:10:00 7.5 C 6.16 g/m*3 5.14 C 12.9 km/h
64 01-03-2020 05:15:00 7.5 C 6.16 g/m*3 5.7 C 9.7 km/h
65 01-03-2020 05:20:00 7.4 C 6.12 g/m*3 5.93 C 8.1 km/h
66 01-03-2020 05:25:00 7.4 C 6.04 g/m*3 3.84 C 22.5 km/h
67 01-03-2020 05:30:00 7.6 C 6.12 g/m*3 5.02 C 14.5 km/h
68 01-03-2020 05:35:00 7.6 C 6.12 g/m*3 5.82 C 9.7 km/h
69 01-03-2020 05:40:00 7.5 C 6.16 g/m*3 5.7 C 9.7 km/h
70 01-03-2020 05:45:00 7.4 C 6.12 g/m*3 4.78 C 14.5 km/h
71 01-03-2020 05:50:00 7.4 C 6.2 g/m*3 5.28 C 11.3 km/h
72 01-03-2020 05:55:00 7.4 C 6.2 g/m*3 7.4 C 4.8 km/h
73 01-03-2020 06:00:00 7.3 C 6.16 g/m*3 5.16 C 11.3 km/h
74 01-03-2020 06:05:00 7.3 C 6.16 g/m*3 5.81 C 8.1 km/h
75 01-03-2020 06:10:00 7.4 C 6.2 g/m*3 4.78 C 14.5 km/h
Sensor: Nr:Datum:Temp:Abs-Feuchte:Windchill:Wind:
Aussen-T/F 76 01-03-2020 06:15:00 7.4 C 6.2 g/m*3 4.78 C 14.5 km/h
77 01-03-2020 06:20:00 7.4 C 6.2 g/m*3 5.93 C 8.1 km/h
78 01-03-2020 06:25:00 7.4 C 6.2 g/m*3 4.36 C 17.7 km/h
79 01-03-2020 06:30:00 7.4 C 6.12 g/m*3 4.36 C 17.7 km/h
80 01-03-2020 06:35:00 7.5 C 6.16 g/m*3 5.41 C 11.3 km/h
81 01-03-2020 06:40:00 7.6 C 6.2 g/m*3 4.61 C 17.7 km/h
82 01-03-2020 06:45:00 7.5 C 6.24 g/m*3 7.5 C 3.2 km/h
83 01-03-2020 06:50:00 7.5 C 6.24 g/m*3 7.5 C 1.6 km/h
84 01-03-2020 06:55:00 7.4 C 6.36 g/m*3 5.58 C 9.7 km/h
85 01-03-2020 07:00:00 7.3 C 6.48 g/m*3 7.3 C 4.8 km/h
86 01-03-2020 07:05:00 7.2 C 6.52 g/m*3 5.35 C 9.7 km/h
87 01-03-2020 07:10:00 7 C 6.51 g/m*3 4.8 C 11.3 km/h
88 01-03-2020 07:15:00 6.8 C 6.42 g/m*3 5.22 C 8.1 km/h
89 01-03-2020 07:20:00 6.8 C 6.5 g/m*3 6.8 C 3.2 km/h
90 01-03-2020 07:25:00 6.7 C 6.53 g/m*3 6.7 C 3.2 km/h
91 01-03-2020 07:30:00 6.7 C 6.61 g/m*3 6.7 C 1.6 km/h
92 01-03-2020 07:35:00 6.6 C 6.57 g/m*3 6.6 C 1.6 km/h
93 01-03-2020 07:40:00 6.5 C 6.6 g/m*3 6.5 C 4.8 km/h
94 01-03-2020 07:45:00 6.4 C 6.56 g/m*3 5.21 C 6.4 km/h
95 01-03-2020 07:50:00 6.3 C 6.59 g/m*3 6.3 C 1.6 km/h
96 01-03-2020 07:55:00 6.3 C 6.66 g/m*3 6.3 C 3.2 km/h
97 01-03-2020 08:00:00 6.2 C 6.62 g/m*3 4.98 C 6.4 km/h
98 01-03-2020 08:05:00 6.2 C 6.69 g/m*3 3.84 C 11.3 km/h
99 01-03-2020 08:10:00 6.2 C 6.69 g/m*3 4.98 C 6.4 km/h
100 01-03-2020 08:15:00 6.1 C 6.65 g/m*3 6.1 C 4.8 km/h
Sensor: Nr:Datum:Temp:Abs-Feuchte:Windchill:Wind:
Aussen-T/F 101 01-03-2020 08:20:00 6.1 C 6.65 g/m*3 3.72 C 11.3 km/h
102 01-03-2020 08:25:00 5.9 C 6.56 g/m*3 2.93 C 14.5 km/h
103 01-03-2020 08:30:00 5.8 C 6.52 g/m*3 3.36 C 11.3 km/h
104 01-03-2020 08:35:00 5.7 C 6.48 g/m*3 1.67 C 22.5 km/h
105 01-03-2020 08:40:00 5.6 C 6.43 g/m*3 2.83 C 12.9 km/h
106 01-03-2020 08:45:00 5.3 C 6.31 g/m*3 0.83 C 25.7 km/h
107 01-03-2020 08:50:00 5 C 6.18 g/m*3 0.96 C 20.9 km/h
108 01-03-2020 08:55:00 4.8 C 6.17 g/m*3 2.15 C 11.3 km/h
109 01-03-2020 09:00:00 4.8 C 6.17 g/m*3 1.85 C 12.9 km/h
110 01-03-2020 09:05:00 4.8 C 6.17 g/m*3 2.49 C 9.7 km/h
111 01-03-2020 09:10:00 4.8 C 6.24 g/m*3 0.19 C 25.7 km/h
112 01-03-2020 09:15:00 4.8 C 6.24 g/m*3 0.9 C 19.3 km/h
113 01-03-2020 09:20:00 4.9 C 6.28 g/m*3 2.27 C 11.3 km/h
114 01-03-2020 09:25:00 5.1 C 6.36 g/m*3 2.51 C 11.3 km/h
115 01-03-2020 09:30:00 5.2 C 6.4 g/m*3 2.34 C 12.9 km/h
116 01-03-2020 09:35:00 5.2 C 6.4 g/m*3 2.34 C 12.9 km/h
117 01-03-2020 09:40:00 5.2 C 6.4 g/m*3 1.83 C 16.1 km/h
118 01-03-2020 09:45:00 5.2 C 6.4 g/m*3 2.34 C 12.9 km/h
119 01-03-2020 09:50:00 5.3 C 6.38 g/m*3 3.94 C 6.4 km/h
120 01-03-2020 09:55:00 5.3 C 6.38 g/m*3 3.46 C 8.1 km/h
121 01-03-2020 10:00:00 5.3 C 6.38 g/m*3 3.94 C 6.4 km/h
122 01-03-2020 10:05:00 5.3 C 6.45 g/m*3 3.94 C 6.4 km/h
123 01-03-2020 10:10:00 5.4 C 6.49 g/m*3 2.32 C 14.5 km/h
124 01-03-2020 10:15:00 5.6 C 6.5 g/m*3 3.81 C 8.1 km/h
125 01-03-2020 10:20:00 5.7 C 6.62 g/m*3 2.45 C 16.1 km/h
Sensor: Nr:Datum:Temp:Abs-Feuchte:Windchill:Wind:
Aussen-T/F 126 01-03-2020 10:25:00 6.1 C 6.72 g/m*3 2.95 C 16.1 km/h
127 01-03-2020 10:30:00 6.4 C 6.78 g/m*3 4.08 C 11.3 km/h
128 01-03-2020 10:35:00 6.7 C 6.91 g/m*3 4.17 C 12.9 km/h
129 01-03-2020 10:40:00 6.9 C 6.93 g/m*3 4.16 C 14.5 km/h
130 01-03-2020 10:45:00 7.2 C 6.99 g/m*3 5.04 C 11.3 km/h
131 01-03-2020 10:50:00 7.4 C 7.08 g/m*3 5.93 C 8.1 km/h
132 01-03-2020 10:55:00 7.6 C 7.17 g/m*3 6.16 C 8.1 km/h
133 01-03-2020 11:00:00 7.7 C 6.97 g/m*3 4.55 C 19.3 km/h
134 01-03-2020 11:05:00 7.9 C 6.98 g/m*3 4.98 C 17.7 km/h
135 01-03-2020 11:10:00 8 C 6.78 g/m*3 4.45 C 24.1 km/h
136 01-03-2020 11:15:00 8.2 C 6.95 g/m*3 5.99 C 12.9 km/h
137 01-03-2020 11:20:00 8.3 C 6.83 g/m*3 5.14 C 20.9 km/h
138 01-03-2020 11:25:00 8.5 C 6.74 g/m*3 5.73 C 17.7 km/h
139 01-03-2020 11:30:00 8.6 C 6.79 g/m*3 5.68 C 19.3 km/h
140 01-03-2020 11:35:00 8.8 C 6.7 g/m*3 5.93 C 19.3 km/h
141 01-03-2020 11:40:00 8.8 C 6.7 g/m*3 6.11 C 17.7 km/h
142 01-03-2020 11:45:00 8.8 C 6.61 g/m*3 6.3 C 16.1 km/h
143 01-03-2020 11:50:00 8.8 C 6.53 g/m*3 4.97 C 30.6 km/h
144 01-03-2020 11:55:00 8.9 C 6.75 g/m*3 6.85 C 12.9 km/h
145 01-03-2020 12:00:00 9.1 C 6.65 g/m*3 6.15 C 20.9 km/h
146 01-03-2020 12:05:00 8.9 C 6.57 g/m*3 6.06 C 19.3 km/h
147 01-03-2020 12:10:00 8.7 C 6.4 g/m*3 5.49 C 22.5 km/h
148 01-03-2020 12:15:00 8.7 C 6.57 g/m*3 6.38 C 14.5 km/h
149 01-03-2020 12:20:00 8.7 C 6.49 g/m*3 6.17 C 16.1 km/h
150 01-03-2020 12:25:00 8.8 C 6.44 g/m*3 6.5 C 14.5 km/h
Sensor: Nr:Datum:Temp:Abs-Feuchte:Windchill:Wind:
Aussen-T/F 151 01-03-2020 12:30:00 9 C 6.44 g/m*3 6.36 C 17.7 km/h
152 01-03-2020 12:35:00 9 C 6.44 g/m*3 6.97 C 12.9 km/h
153 01-03-2020 12:40:00 9.1 C 6.57 g/m*3 7.09 C 12.9 km/h
154 01-03-2020 12:45:00 9.2 C 6.61 g/m*3 9.2 C 4.8 km/h
155 01-03-2020 12:50:00 9.4 C 6.6 g/m*3 7.04 C 16.1 km/h
156 01-03-2020 12:55:00 9.6 C 6.6 g/m*3 7.7 C 12.9 km/h
157 01-03-2020 13:00:00 9.9 C 6.72 g/m*3 8.3 C 11.3 km/h
158 01-03-2020 13:05:00 10.1 C 6.62 g/m*3 8.31 C 12.9 km/h
159 01-03-2020 13:10:00 10.2 C 6.57 g/m*3 8.92 C 9.7 km/h
160 01-03-2020 13:15:00 10.1 C 6.43 g/m*3 8.1 C 14.5 km/h
161 01-03-2020 13:20:00 9.9 C 6.44 g/m*3 8.56 C 9.7 km/h
162 01-03-2020 13:25:00 9.8 C 6.4 g/m*3 7.54 C 16.1 km/h
163 01-03-2020 13:30:00 9.8 C 6.4 g/m*3 8.18 C 11.3 km/h
164 01-03-2020 13:35:00 9.9 C 6.44 g/m*3 7.32 C 19.3 km/h
165 01-03-2020 13:40:00 10 C 6.3 g/m*3 7.29 C 20.9 km/h
166 01-03-2020 13:45:00 10.1 C 6.52 g/m*3 7.91 C 16.1 km/h
167 01-03-2020 13:50:00 10.1 C 6.52 g/m*3 8.1 C 14.5 km/h
168 01-03-2020 13:55:00 10.2 C 6.66 g/m*3 7.86 C 17.7 km/h
169 01-03-2020 14:00:00 10.3 C 6.42 g/m*3 7.98 C 17.7 km/h
170 01-03-2020 14:05:00 10.2 C 6.57 g/m*3 7.86 C 17.7 km/h
171 01-03-2020 14:10:00 10.2 C 6.47 g/m*3 8.43 C 12.9 km/h
172 01-03-2020 14:15:00 10.1 C 6.52 g/m*3 8.31 C 12.9 km/h
173 01-03-2020 14:20:00 10 C 6.48 g/m*3 8.42 C 11.3 km/h
174 01-03-2020 14:25:00 10 C 6.48 g/m*3 8.42 C 11.3 km/h
175 01-03-2020 14:30:00 10.1 C 6.52 g/m*3 8.8 C 9.7 km/h
Sensor: Nr:Datum:Temp:Abs-Feuchte:Windchill:Wind:
Aussen-T/F 176 01-03-2020 14:35:00 10.2 C 6.57 g/m*3 8.66 C 11.3 km/h
177 01-03-2020 14:40:00 10.2 C 6.47 g/m*3 7.86 C 17.7 km/h
178 01-03-2020 14:45:00 10.3 C 6.61 g/m*3 9.04 C 9.7 km/h
179 01-03-2020 14:50:00 10.4 C 6.46 g/m*3 9.16 C 9.7 km/h
180 01-03-2020 14:55:00 10.3 C 6.42 g/m*3 8.55 C 12.9 km/h
181 01-03-2020 15:00:00 10.2 C 6.47 g/m*3 9.6 C 6.4 km/h
182 01-03-2020 15:05:00 10.2 C 6.47 g/m*3 8.92 C 9.7 km/h
183 01-03-2020 15:10:00 10.2 C 6.57 g/m*3 9.22 C 8.1 km/h
184 01-03-2020 15:15:00 10.3 C 6.51 g/m*3 9.72 C 6.4 km/h
185 01-03-2020 15:20:00 10.6 C 6.73 g/m*3 9.4 C 9.7 km/h
186 01-03-2020 15:25:00 10.8 C 6.62 g/m*3 9.64 C 9.7 km/h
187 01-03-2020 15:30:00 10.8 C 6.42 g/m*3 9.38 C 11.3 km/h
188 01-03-2020 15:35:00 10.8 C 6.42 g/m*3 9.93 C 8.1 km/h
189 01-03-2020 15:40:00 10.8 C 6.52 g/m*3 10.29 C 6.4 km/h
190 01-03-2020 15:45:00 11 C 6.61 g/m*3 10.16 C 8.1 km/h
191 01-03-2020 15:50:00 11.1 C 6.55 g/m*3 11.1 C 9.7 km/h
192 01-03-2020 15:55:00 11.1 C 6.55 g/m*3 11.1 C 4.8 km/h
193 01-03-2020 16:00:00 11.1 C 6.65 g/m*3 11.1 C 3.2 km/h
194 01-03-2020 16:05:00 11 C 6.61 g/m*3 10.52 C 6.4 km/h
195 01-03-2020 16:10:00 10.9 C 6.56 g/m*3 10.9 C 1.6 km/h
196 01-03-2020 16:15:00 10.8 C 6.42 g/m*3 10.8 C 4.8 km/h
197 01-03-2020 16:20:00 10.8 C 6.52 g/m*3 10.8 C 0 km/h
198 01-03-2020 16:25:00 10.8 C 6.52 g/m*3 10.8 C 0 km/h
199 01-03-2020 16:30:00 10.7 C 6.48 g/m*3 10.7 C 0 km/h
200 01-03-2020 16:35:00 10.7 C 6.58 g/m*3 10.7 C 0 km/h
Sensor: Nr:Datum:Temp:Abs-Feuchte:Windchill:Wind:
Aussen-T/F 201 01-03-2020 16:40:00 10.8 C 7.12 g/m*3 10.8 C 1.6 km/h
202 01-03-2020 16:45:00 10.7 C 7.07 g/m*3 10.7 C 0 km/h
203 01-03-2020 16:50:00 10.7 C 7.37 g/m*3 10.7 C 0 km/h
204 01-03-2020 16:55:00 10.6 C 7.42 g/m*3 10.6 C 0 km/h
205 01-03-2020 17:00:00 10.4 C 7.42 g/m*3 10.4 C 0 km/h
206 01-03-2020 17:05:00 10.3 C 7.57 g/m*3 9.72 C 6.4 km/h
207 01-03-2020 17:10:00 10.1 C 7.47 g/m*3 9.1 C 8.1 km/h
208 01-03-2020 17:15:00 9.7 C 7.47 g/m*3 8.63 C 8.1 km/h
209 01-03-2020 17:20:00 9.6 C 7.69 g/m*3 9.6 C 3.2 km/h
210 01-03-2020 17:25:00 9.3 C 7.64 g/m*3 9.3 C 4.8 km/h
211 01-03-2020 17:30:00 9.1 C 7.72 g/m*3 9.1 C 1.6 km/h
212 01-03-2020 17:35:00 8.9 C 7.62 g/m*3 8.9 C 4.8 km/h
213 01-03-2020 17:40:00 8.7 C 7.61 g/m*3 8.7 C 4.8 km/h
214 01-03-2020 17:45:00 8.5 C 7.6 g/m*3 8.5 C 4.8 km/h
215 01-03-2020 17:50:00 8.3 C 7.59 g/m*3 8.3 C 4.8 km/h
216 01-03-2020 17:55:00 8.2 C 7.54 g/m*3 8.2 C 4.8 km/h
217 01-03-2020 18:00:00 8.1 C 7.57 g/m*3 8.1 C 1.6 km/h
218 01-03-2020 18:05:00 7.9 C 7.47 g/m*3 7.9 C 0 km/h
219 01-03-2020 18:10:00 7.8 C 7.43 g/m*3 7.8 C 0 km/h
220 01-03-2020 18:15:00 7.8 C 7.51 g/m*3 7.8 C 3.2 km/h
221 01-03-2020 18:20:00 7.7 C 7.46 g/m*3 7.7 C 4.8 km/h
222 01-03-2020 18:25:00 7.6 C 7.41 g/m*3 7.6 C 4.8 km/h
223 01-03-2020 18:30:00 7.6 C 7.49 g/m*3 7.6 C 3.2 km/h
224 01-03-2020 18:35:00 7.5 C 7.44 g/m*3 7.5 C 3.2 km/h
225 01-03-2020 18:40:00 7.5 C 7.44 g/m*3 7.5 C 3.2 km/h
Sensor: Nr:Datum:Temp:Abs-Feuchte:Windchill:Wind:
Aussen-T/F 226 01-03-2020 18:45:00 7.4 C 7.4 g/m*3 7.4 C 3.2 km/h
227 01-03-2020 18:50:00 7.4 C 7.4 g/m*3 7.4 C 3.2 km/h
228 01-03-2020 18:55:00 7.4 C 7.4 g/m*3 7.4 C 1.6 km/h
229 01-03-2020 19:00:00 7.4 C 7.48 g/m*3 7.4 C 0 km/h
230 01-03-2020 19:05:00 7.3 C 7.43 g/m*3 7.3 C 0 km/h
231 01-03-2020 19:10:00 7.3 C 7.43 g/m*3 7.3 C 0 km/h
232 01-03-2020 19:15:00 7.3 C 7.43 g/m*3 7.3 C 1.6 km/h
233 01-03-2020 19:20:00 7.3 C 7.43 g/m*3 7.3 C 0 km/h
234 01-03-2020 19:25:00 7.3 C 7.43 g/m*3 7.3 C 1.6 km/h
235 01-03-2020 19:30:00 7.3 C 7.43 g/m*3 7.3 C 1.6 km/h
236 01-03-2020 19:35:00 7.2 C 7.38 g/m*3 7.2 C 0 km/h
237 01-03-2020 19:40:00 7.2 C 7.38 g/m*3 7.2 C 0 km/h
238 01-03-2020 19:45:00 7.2 C 7.46 g/m*3 7.2 C 3.2 km/h
239 01-03-2020 19:50:00 7.1 C 7.33 g/m*3 7.1 C 0 km/h
240 01-03-2020 19:55:00 7.1 C 7.33 g/m*3 7.1 C 0 km/h
241 01-03-2020 20:00:00 7.1 C 7.41 g/m*3 7.1 C 1.6 km/h
242 01-03-2020 20:05:00 7.1 C 7.41 g/m*3 7.1 C 4.8 km/h
243 01-03-2020 20:10:00 7.1 C 7.41 g/m*3 6.02 C 6.4 km/h
244 01-03-2020 20:15:00 7 C 7.36 g/m*3 7 C 4.8 km/h
245 01-03-2020 20:20:00 7 C 7.36 g/m*3 7 C 1.6 km/h
246 01-03-2020 20:25:00 6.9 C 7.31 g/m*3 6.9 C 3.2 km/h
247 01-03-2020 20:30:00 6.9 C 7.31 g/m*3 6.9 C 0 km/h
248 01-03-2020 20:35:00 6.8 C 7.27 g/m*3 6.8 C 1.6 km/h
249 01-03-2020 20:40:00 6.7 C 7.22 g/m*3 6.7 C 1.6 km/h
250 01-03-2020 20:45:00 6.6 C 7.17 g/m*3 6.6 C 1.6 km/h
Sensor: Nr:Datum:Temp:Abs-Feuchte:Windchill:Wind:
Aussen-T/F 251 01-03-2020 20:50:00 6.5 C 7.12 g/m*3 6.5 C 0 km/h
252 01-03-2020 20:55:00 6.4 C 7.08 g/m*3 6.4 C 0 km/h
253 01-03-2020 21:00:00 6.3 C 7.03 g/m*3 6.3 C 0 km/h
254 01-03-2020 21:05:00 6.3 C 7.03 g/m*3 6.3 C 0 km/h
255 01-03-2020 21:10:00 6.3 C 7.03 g/m*3 6.3 C 0 km/h
256 01-03-2020 21:15:00 6.3 C 7.03 g/m*3 6.3 C 0 km/h
257 01-03-2020 21:20:00 6.3 C 7.03 g/m*3 6.3 C 0 km/h
258 01-03-2020 21:25:00 6.2 C 6.99 g/m*3 6.2 C 0 km/h
259 01-03-2020 21:30:00 6.2 C 6.99 g/m*3 6.2 C 0 km/h
260 01-03-2020 21:35:00 6.2 C 6.99 g/m*3 6.2 C 0 km/h
261 01-03-2020 21:40:00 6.3 C 7.03 g/m*3 6.3 C 0 km/h
262 01-03-2020 21:45:00 6.3 C 7.11 g/m*3 6.3 C 0 km/h
263 01-03-2020 21:50:00 6.3 C 7.11 g/m*3 6.3 C 0 km/h
264 01-03-2020 21:55:00 6.4 C 7.15 g/m*3 6.4 C 0 km/h
265 01-03-2020 22:00:00 6.5 C 7.2 g/m*3 6.5 C 0 km/h
266 01-03-2020 22:05:00 6.6 C 7.25 g/m*3 6.6 C 0 km/h
267 01-03-2020 22:10:00 6.6 C 7.25 g/m*3 6.6 C 0 km/h
268 01-03-2020 22:15:00 6.7 C 7.29 g/m*3 6.7 C 0 km/h
269 01-03-2020 22:20:00 6.7 C 7.29 g/m*3 6.7 C 0 km/h
270 01-03-2020 22:25:00 6.8 C 7.34 g/m*3 6.8 C 0 km/h
271 01-03-2020 22:30:00 6.8 C 7.34 g/m*3 6.8 C 0 km/h
272 01-03-2020 22:35:00 6.8 C 7.34 g/m*3 6.8 C 0 km/h
273 01-03-2020 22:40:00 6.8 C 7.34 g/m*3 6.8 C 0 km/h
274 01-03-2020 22:45:00 6.8 C 7.34 g/m*3 6.8 C 0 km/h
275 01-03-2020 22:50:00 6.8 C 7.34 g/m*3 6.8 C 0 km/h
Sensor: Nr:Datum:Temp:Abs-Feuchte:Windchill:Wind:
Aussen-T/F 276 01-03-2020 22:55:00 6.8 C 7.34 g/m*3 6.8 C 0 km/h
277 01-03-2020 23:00:00 6.9 C 7.39 g/m*3 6.9 C 0 km/h
278 01-03-2020 23:05:00 6.9 C 7.39 g/m*3 6.9 C 4.8 km/h
279 01-03-2020 23:10:00 6.9 C 7.39 g/m*3 6.9 C 4.8 km/h
280 01-03-2020 23:15:00 7 C 7.44 g/m*3 5.11 C 9.7 km/h
281 01-03-2020 23:20:00 6.2 C 6.99 g/m*3 1.44 C 32.2 km/h
282 01-03-2020 23:25:00 5.4 C 6.42 g/m*3 0.39 C 32.2 km/h
283 01-03-2020 23:30:00 5.1 C 6.29 g/m*3 1.71 C 16.1 km/h
284 01-03-2020 23:35:00 4.8 C 6.1 g/m*3 0.19 C 25.7 km/h
285 01-03-2020 23:40:00 4.3 C 5.9 g/m*3 0.97 C 14.5 km/h
286 01-03-2020 23:45:00 4.1 C 5.89 g/m*3 1.31 C 11.3 km/h
287 01-03-2020 23:50:00 3.9 C 5.87 g/m*3 1.06 C 11.3 km/h
288 01-03-2020 23:55:00 3.8 C 5.83 g/m*3 1.29 C 9.7 km/h
289 02-03-2020 00:00:00 3.8 C 5.83 g/m*3 0.1 C 16.1 km/h
290 02-03-2020 00:05:00 3.9 C 5.94 g/m*3 0.75 C 12.9 km/h
291 02-03-2020 00:10:00 3.9 C 5.94 g/m*3 0.75 C 12.9 km/h
292 02-03-2020 00:15:00 4 C 5.98 g/m*3 1.18 C 11.3 km/h
293 02-03-2020 00:20:00 4.1 C 6.02 g/m*3 1 C 12.9 km/h
294 02-03-2020 00:25:00 4.1 C 6.02 g/m*3 1.65 C 9.7 km/h
295 02-03-2020 00:30:00 4.1 C 6.02 g/m*3 0.72 C 14.5 km/h
296 02-03-2020 00:35:00 4.2 C 6.06 g/m*3 1.12 C 12.9 km/h
297 02-03-2020 00:40:00 4.2 C 6.06 g/m*3 1.43 C 11.3 km/h
298 02-03-2020 00:45:00 4.2 C 6.06 g/m*3 0.84 C 14.5 km/h
299 02-03-2020 00:50:00 4.2 C 6.06 g/m*3 0.36 C 17.7 km/h
300 02-03-2020 00:55:00 4.3 C 6.1 g/m*3 1.24 C 12.9 km/h
Sensor: Nr:Datum:Temp:Abs-Feuchte:Windchill:Wind:
Aussen-T/F 301 02-03-2020 01:00:00 4.3 C 6.1 g/m*3 1.24 C 12.9 km/h
302 02-03-2020 01:05:00 4.3 C 6.03 g/m*3 1.89 C 9.7 km/h
303 02-03-2020 01:10:00 4.3 C 6.03 g/m*3 1.55 C 11.3 km/h
304 02-03-2020 01:15:00 4.3 C 6.03 g/m*3 1.24 C 12.9 km/h
305 02-03-2020 01:20:00 4.3 C 6.03 g/m*3 1.24 C 12.9 km/h
306 02-03-2020 01:25:00 4.3 C 6.03 g/m*3 0.72 C 16.1 km/h
307 02-03-2020 01:30:00 4.3 C 6.03 g/m*3 0.07 C 20.9 km/h
308 02-03-2020 01:35:00 4.3 C 6.03 g/m*3 0.72 C 16.1 km/h
309 02-03-2020 01:40:00 4.3 C 6.03 g/m*3 1.55 C 11.3 km/h
310 02-03-2020 01:45:00 4.3 C 6.03 g/m*3 1.89 C 9.7 km/h
311 02-03-2020 01:50:00 4.3 C 6.03 g/m*3 2.78 C 6.4 km/h
312 02-03-2020 01:55:00 4.4 C 6.07 g/m*3 0.61 C 17.7 km/h
313 02-03-2020 02:00:00 4.3 C 6.03 g/m*3 1.89 C 9.7 km/h
314 02-03-2020 02:05:00 4.3 C 6.03 g/m*3 1.89 C 9.7 km/h
315 02-03-2020 02:10:00 4.2 C 5.99 g/m*3 1.77 C 9.7 km/h
316 02-03-2020 02:15:00 4.2 C 5.99 g/m*3 1.43 C 11.3 km/h
317 02-03-2020 02:20:00 4.2 C 5.99 g/m*3 2.17 C 8.1 km/h
318 02-03-2020 02:25:00 4.2 C 5.99 g/m*3 2.17 C 8.1 km/h
319 02-03-2020 02:30:00 4.1 C 5.95 g/m*3 0.02 C 19.3 km/h
320 02-03-2020 02:35:00 4.2 C 5.99 g/m*3 0.84 C 14.5 km/h
321 02-03-2020 02:40:00 4.3 C 6.03 g/m*3 1.24 C 12.9 km/h
322 02-03-2020 02:45:00 4.3 C 6.03 g/m*3 1.24 C 12.9 km/h
323 02-03-2020 02:50:00 4.4 C 6.07 g/m*3 2.01 C 9.7 km/h
324 02-03-2020 02:55:00 4.3 C 6.03 g/m*3 1.89 C 9.7 km/h
325 02-03-2020 03:00:00 4.2 C 5.99 g/m*3 2.17 C 8.1 km/h
Sensor: Nr:Datum:Temp:Abs-Feuchte:Windchill:Wind:
Aussen-T/F 326 02-03-2020 03:05:00 4.2 C 5.99 g/m*3 4.2 C 4.8 km/h
327 02-03-2020 03:10:00 4.1 C 5.95 g/m*3 1.31 C 11.3 km/h
328 02-03-2020 03:15:00 4.1 C 5.95 g/m*3 1 C 12.9 km/h
329 02-03-2020 03:20:00 4.1 C 5.95 g/m*3 2.55 C 6.4 km/h
330 02-03-2020 03:25:00 3.9 C 5.87 g/m*3 2.32 C 6.4 km/h
331 02-03-2020 03:30:00 3.9 C 5.81 g/m*3 3.9 C 4.8 km/h
332 02-03-2020 03:35:00 3.8 C 5.83 g/m*3 3.8 C 4.8 km/h
333 02-03-2020 03:40:00 3.7 C 5.8 g/m*3 3.7 C 4.8 km/h
334 02-03-2020 03:45:00 3.6 C 5.76 g/m*3 1.98 C 6.4 km/h
335 02-03-2020 03:50:00 3.6 C 5.76 g/m*3 1.98 C 6.4 km/h
336 02-03-2020 03:55:00 3.5 C 5.72 g/m*3 3.5 C 4.8 km/h
337 02-03-2020 04:00:00 3.4 C 5.68 g/m*3 3.4 C 4.8 km/h
338 02-03-2020 04:05:00 3.4 C 5.68 g/m*3 3.4 C 4.8 km/h
339 02-03-2020 04:10:00 3.3 C 5.7 g/m*3 3.3 C 4.8 km/h
340 02-03-2020 04:15:00 3.2 C 5.66 g/m*3 3.2 C 3.2 km/h
341 02-03-2020 04:20:00 3.1 C 5.63 g/m*3 3.1 C 4.8 km/h
342 02-03-2020 04:25:00 3.2 C 5.66 g/m*3 3.2 C 3.2 km/h
343 02-03-2020 04:30:00 3.2 C 5.66 g/m*3 3.2 C 3.2 km/h
344 02-03-2020 04:35:00 3.2 C 5.66 g/m*3 3.2 C 3.2 km/h
345 02-03-2020 04:40:00 3.2 C 5.66 g/m*3 0.99 C 8.1 km/h
346 02-03-2020 04:45:00 3.2 C 5.72 g/m*3 3.2 C 4.8 km/h
347 02-03-2020 04:50:00 3.2 C 5.66 g/m*3 3.2 C 3.2 km/h
348 02-03-2020 04:55:00 3.1 C 5.63 g/m*3 3.1 C 4.8 km/h
349 02-03-2020 05:00:00 3 C 5.59 g/m*3 3 C 4.8 km/h
350 02-03-2020 05:05:00 2.9 C 5.55 g/m*3 2.9 C 4.8 km/h
Sensor: Nr:Datum:Temp:Abs-Feuchte:Windchill:Wind:
Aussen-T/F 351 02-03-2020 05:10:00 2.8 C 5.51 g/m*3 2.8 C 4.8 km/h
352 02-03-2020 05:15:00 2.7 C 5.48 g/m*3 2.7 C 1.6 km/h
353 02-03-2020 05:20:00 2.6 C 5.44 g/m*3 2.6 C 4.8 km/h
354 02-03-2020 05:25:00 2.5 C 5.4 g/m*3 2.5 C 3.2 km/h
355 02-03-2020 05:30:00 2.4 C 5.37 g/m*3 2.4 C 3.2 km/h
356 02-03-2020 05:35:00 2.3 C 5.33 g/m*3 2.3 C 4.8 km/h
357 02-03-2020 05:40:00 2.2 C 5.29 g/m*3 2.2 C 4.8 km/h
358 02-03-2020 05:45:00 2.2 C 5.35 g/m*3 2.2 C 4.8 km/h
359 02-03-2020 05:50:00 2.2 C 5.35 g/m*3 2.2 C 4.8 km/h
360 02-03-2020 05:55:00 2.1 C 5.31 g/m*3 2.1 C 3.2 km/h
361 02-03-2020 06:00:00 2.1 C 5.31 g/m*3 2.1 C 3.2 km/h
362 02-03-2020 06:05:00 2.1 C 5.31 g/m*3 2.1 C 3.2 km/h
363 02-03-2020 06:10:00 2.1 C 5.31 g/m*3 2.1 C 3.2 km/h
364 02-03-2020 06:15:00 2.1 C 5.31 g/m*3 2.1 C 4.8 km/h
365 02-03-2020 06:20:00 2.1 C 5.31 g/m*3 2.1 C 3.2 km/h
366 02-03-2020 06:25:00 2.2 C 5.35 g/m*3 2.2 C 1.6 km/h
367 02-03-2020 06:30:00 2.3 C 5.39 g/m*3 2.3 C 4.8 km/h
368 02-03-2020 06:35:00 2.4 C 5.48 g/m*3 2.4 C 1.6 km/h
369 02-03-2020 06:40:00 2.4 C 5.42 g/m*3 2.4 C 1.6 km/h
370 02-03-2020 06:45:00 2.3 C 5.39 g/m*3 2.3 C 4.8 km/h
371 02-03-2020 06:50:00 2.3 C 5.39 g/m*3 2.3 C 3.2 km/h
372 02-03-2020 06:55:00 2.4 C 5.42 g/m*3 2.4 C 3.2 km/h
373 02-03-2020 07:00:00 2.4 C 5.48 g/m*3 2.4 C 1.6 km/h
374 02-03-2020 07:05:00 2.4 C 5.48 g/m*3 2.4 C 0 km/h
375 02-03-2020 07:10:00 2.4 C 5.48 g/m*3 2.4 C 0 km/h
Sensor: Nr:Datum:Temp:Abs-Feuchte:Windchill:Wind:
Aussen-T/F 376 02-03-2020 07:15:00 2.4 C 5.48 g/m*3 2.4 C 1.6 km/h
377 02-03-2020 07:20:00 2.6 C 5.56 g/m*3 2.6 C 3.2 km/h
378 02-03-2020 07:25:00 2.7 C 5.59 g/m*3 2.7 C 3.2 km/h
379 02-03-2020 07:30:00 2.7 C 5.59 g/m*3 2.7 C 0 km/h
380 02-03-2020 07:35:00 2.8 C 5.63 g/m*3 2.8 C 0 km/h
381 02-03-2020 07:40:00 2.8 C 5.63 g/m*3 2.8 C 0 km/h
382 02-03-2020 07:45:00 2.9 C 5.67 g/m*3 2.9 C 0 km/h
383 02-03-2020 07:50:00 2.9 C 5.67 g/m*3 2.9 C 0 km/h
384 02-03-2020 07:55:00 3.1 C 5.75 g/m*3 3.1 C 0 km/h
385 02-03-2020 08:00:00 3.1 C 5.75 g/m*3 3.1 C 0 km/h
386 02-03-2020 08:05:00 3.2 C 5.79 g/m*3 3.2 C 0 km/h
387 02-03-2020 08:10:00 3.3 C 5.82 g/m*3 3.3 C 0 km/h
388 02-03-2020 08:15:00 3.3 C 5.82 g/m*3 3.3 C 0 km/h
389 02-03-2020 08:20:00 3.4 C 5.86 g/m*3 3.4 C 0 km/h
390 02-03-2020 08:25:00 3.4 C 5.86 g/m*3 3.4 C 0 km/h
391 02-03-2020 08:30:00 3.5 C 5.9 g/m*3 3.5 C 0 km/h
392 02-03-2020 08:35:00 3.6 C 5.94 g/m*3 3.6 C 0 km/h
393 02-03-2020 08:40:00 3.7 C 6.04 g/m*3 3.7 C 0 km/h
394 02-03-2020 08:45:00 3.8 C 6.09 g/m*3 3.8 C 0 km/h
395 02-03-2020 08:50:00 3.9 C 6.06 g/m*3 3.9 C 0 km/h
396 02-03-2020 08:55:00 4.1 C 6.21 g/m*3 4.1 C 4.8 km/h
397 02-03-2020 09:00:00 4.2 C 6.25 g/m*3 4.2 C 0 km/h
398 02-03-2020 09:05:00 4.3 C 6.23 g/m*3 4.3 C 1.6 km/h
399 02-03-2020 09:10:00 4.4 C 6.33 g/m*3 4.4 C 1.6 km/h
400 02-03-2020 09:15:00 4.5 C 6.38 g/m*3 4.5 C 0 km/h
Sensor: Nr:Datum:Temp:Abs-Feuchte:Windchill:Wind:
Aussen-T/F 401 02-03-2020 09:20:00 4.6 C 6.35 g/m*3 4.6 C 4.8 km/h
402 02-03-2020 09:25:00 4.7 C 6.46 g/m*3 4.7 C 4.8 km/h
403 02-03-2020 09:30:00 4.8 C 6.44 g/m*3 4.8 C 4.8 km/h
404 02-03-2020 09:35:00 4.9 C 6.48 g/m*3 2.27 C 11.3 km/h
405 02-03-2020 09:40:00 5.1 C 6.5 g/m*3 3.23 C 8.1 km/h
406 02-03-2020 09:45:00 5.3 C 6.58 g/m*3 3.08 C 9.7 km/h
407 02-03-2020 09:50:00 5.4 C 6.56 g/m*3 3.58 C 8.1 km/h
408 02-03-2020 09:55:00 5.7 C 6.62 g/m*3 4.4 C 6.4 km/h
409 02-03-2020 10:00:00 5.8 C 6.59 g/m*3 5.8 C 4.8 km/h
410 02-03-2020 10:05:00 6.1 C 6.65 g/m*3 4.04 C 9.7 km/h
411 02-03-2020 10:10:00 6.3 C 6.66 g/m*3 4.64 C 8.1 km/h
412 02-03-2020 10:15:00 6.4 C 6.63 g/m*3 6.4 C 4.8 km/h
413 02-03-2020 10:20:00 6.6 C 6.64 g/m*3 4.63 C 9.7 km/h
414 02-03-2020 10:25:00 6.8 C 6.73 g/m*3 5.22 C 8.1 km/h
415 02-03-2020 10:30:00 7 C 6.66 g/m*3 4.53 C 12.9 km/h
416 02-03-2020 10:35:00 7.2 C 6.67 g/m*3 6.13 C 6.4 km/h
417 02-03-2020 10:40:00 7.4 C 6.84 g/m*3 6.37 C 6.4 km/h
418 02-03-2020 10:45:00 7.7 C 6.97 g/m*3 7.7 C 3.2 km/h
419 02-03-2020 10:50:00 7.9 C 6.9 g/m*3 5.63 C 12.9 km/h
420 02-03-2020 10:55:00 8.2 C 7.03 g/m*3 7.29 C 6.4 km/h
421 02-03-2020 11:00:00 8.4 C 7.04 g/m*3 6.78 C 9.7 km/h
422 02-03-2020 11:05:00 8.7 C 7.01 g/m*3 7.87 C 6.4 km/h
423 02-03-2020 11:10:00 9 C 7.14 g/m*3 8.21 C 6.4 km/h
424 02-03-2020 11:15:00 9.2 C 7.14 g/m*3 7.46 C 11.3 km/h
425 02-03-2020 11:20:00 9.3 C 7.01 g/m*3 7.85 C 9.7 km/h
Sensor: Nr:Datum:Temp:Abs-Feuchte:Windchill:Wind:
Aussen-T/F 426 02-03-2020 11:25:00 9.4 C 6.96 g/m*3 7.7 C 11.3 km/h
427 02-03-2020 11:30:00 9.6 C 7.05 g/m*3 8.52 C 8.1 km/h
428 02-03-2020 11:35:00 9.7 C 7.01 g/m*3 8.06 C 11.3 km/h
429 02-03-2020 11:40:00 9.9 C 7.19 g/m*3 8.3 C 11.3 km/h
430 02-03-2020 11:45:00 10.1 C 7 g/m*3 9.48 C 6.4 km/h
431 02-03-2020 11:50:00 10.2 C 6.95 g/m*3 9.6 C 6.4 km/h
432 02-03-2020 11:55:00 10.2 C 7.14 g/m*3 10.2 C 4.8 km/h
433 02-03-2020 12:00:00 10.4 C 6.94 g/m*3 9.83 C 6.4 km/h
434 02-03-2020 12:05:00 10.6 C 6.93 g/m*3 10.06 C 6.4 km/h
435 02-03-2020 12:10:00 10.7 C 6.97 g/m*3 9.04 C 12.9 km/h
436 02-03-2020 12:15:00 10.8 C 6.92 g/m*3 10.8 C 4.8 km/h
437 02-03-2020 12:20:00 10.8 C 6.72 g/m*3 10.8 C 4.8 km/h
438 02-03-2020 12:25:00 10.9 C 6.96 g/m*3 10.04 C 8.1 km/h
439 02-03-2020 12:30:00 10.8 C 6.72 g/m*3 10.29 C 6.4 km/h
440 02-03-2020 12:35:00 10.8 C 6.72 g/m*3 8.78 C 16.1 km/h
441 02-03-2020 12:40:00 10.9 C 7.06 g/m*3 9.51 C 11.3 km/h
442 02-03-2020 12:45:00 11 C 6.81 g/m*3 9.4 C 12.9 km/h
443 02-03-2020 12:50:00 11 C 6.71 g/m*3 9.4 C 12.9 km/h
444 02-03-2020 12:55:00 10.9 C 6.86 g/m*3 10.41 C 6.4 km/h
445 02-03-2020 13:00:00 10.8 C 6.92 g/m*3 10.29 C 6.4 km/h
446 02-03-2020 13:05:00 10.8 C 6.82 g/m*3 9.64 C 9.7 km/h
447 02-03-2020 13:10:00 10.9 C 7.06 g/m*3 10.41 C 6.4 km/h
448 02-03-2020 13:15:00 11.1 C 6.85 g/m*3 11.1 C 4.8 km/h
449 02-03-2020 13:20:00 11.4 C 7.08 g/m*3 11.4 C 8.1 km/h
450 02-03-2020 13:25:00 11.7 C 7.01 g/m*3 11.7 C 11.3 km/h
Sensor: Nr:Datum:Temp:Abs-Feuchte:Windchill:Wind:
Aussen-T/F 451 02-03-2020 13:30:00 11.8 C 7.05 g/m*3 11.8 C 9.7 km/h
452 02-03-2020 13:35:00 11.9 C 7.1 g/m*3 11.9 C 8.1 km/h
453 02-03-2020 13:40:00 12.2 C 7.23 g/m*3 12.2 C 8.1 km/h
454 02-03-2020 13:45:00 12.3 C 7.06 g/m*3 12.3 C 8.1 km/h
455 02-03-2020 13:50:00 12.2 C 7.01 g/m*3 12.2 C 9.7 km/h
456 02-03-2020 13:55:00 11.9 C 6.78 g/m*3 11.9 C 6.4 km/h
457 02-03-2020 14:00:00 11.7 C 6.9 g/m*3 11.7 C 6.4 km/h
458 02-03-2020 14:05:00 11.5 C 7.02 g/m*3 11.5 C 11.3 km/h
459 02-03-2020 14:10:00 11.4 C 6.98 g/m*3 11.4 C 4.8 km/h
460 02-03-2020 14:15:00 11.3 C 6.83 g/m*3 11.3 C 9.7 km/h
461 02-03-2020 14:20:00 11.2 C 6.89 g/m*3 11.2 C 8.1 km/h
462 02-03-2020 14:25:00 11 C 6.91 g/m*3 10.52 C 6.4 km/h
463 02-03-2020 14:30:00 11 C 6.91 g/m*3 9.4 C 12.9 km/h
464 02-03-2020 14:35:00 10.9 C 6.86 g/m*3 10.41 C 6.4 km/h
465 02-03-2020 14:40:00 10.9 C 6.76 g/m*3 9.76 C 9.7 km/h
466 02-03-2020 14:45:00 10.8 C 6.82 g/m*3 9.93 C 8.1 km/h
467 02-03-2020 14:50:00 10.7 C 6.78 g/m*3 9.52 C 9.7 km/h
468 02-03-2020 14:55:00 10.7 C 6.68 g/m*3 9.04 C 12.9 km/h
469 02-03-2020 15:00:00 10.6 C 6.73 g/m*3 10.6 C 4.8 km/h
470 02-03-2020 15:05:00 10.6 C 6.83 g/m*3 10.06 C 6.4 km/h
471 02-03-2020 15:10:00 10.6 C 6.83 g/m*3 10.06 C 6.4 km/h
472 02-03-2020 15:15:00 10.5 C 6.79 g/m*3 10.5 C 1.6 km/h
473 02-03-2020 15:20:00 10.5 C 6.79 g/m*3 10.5 C 4.8 km/h
474 02-03-2020 15:25:00 10.5 C 6.89 g/m*3 10.5 C 3.2 km/h
475 02-03-2020 15:30:00 10.4 C 6.75 g/m*3 9.46 C 8.1 km/h
Sensor: Nr:Datum:Temp:Abs-Feuchte:Windchill:Wind:
Aussen-T/F 476 02-03-2020 15:35:00 10.4 C 6.94 g/m*3 10.4 C 4.8 km/h
477 02-03-2020 15:40:00 10.3 C 6.9 g/m*3 10.3 C 0 km/h
478 02-03-2020 15:45:00 10.2 C 7.14 g/m*3 10.2 C 3.2 km/h
479 02-03-2020 15:50:00 10.2 C 7.23 g/m*3 10.2 C 1.6 km/h
480 02-03-2020 15:55:00 10.2 C 7.61 g/m*3 10.2 C 0 km/h
481 02-03-2020 16:00:00 10.1 C 7.85 g/m*3 10.1 C 0 km/h
482 02-03-2020 16:05:00 9.8 C 7.7 g/m*3 9.8 C 0 km/h
483 02-03-2020 16:10:00 9.6 C 7.79 g/m*3 9.6 C 0 km/h
484 02-03-2020 16:15:00 9.4 C 7.78 g/m*3 9.4 C 3.2 km/h
485 02-03-2020 16:20:00 9.2 C 7.77 g/m*3 9.2 C 3.2 km/h
486 02-03-2020 16:25:00 9.1 C 7.72 g/m*3 9.1 C 1.6 km/h
487 02-03-2020 16:30:00 8.8 C 7.66 g/m*3 8.8 C 1.6 km/h
488 02-03-2020 16:35:00 8.7 C 7.7 g/m*3 8.7 C 0 km/h
489 02-03-2020 16:40:00 8.6 C 7.65 g/m*3 8.6 C 0 km/h
490 02-03-2020 16:45:00 8.4 C 7.63 g/m*3 8.4 C 0 km/h
491 02-03-2020 16:50:00 8.3 C 7.59 g/m*3 8.3 C 0 km/h
492 02-03-2020 16:55:00 8.2 C 7.54 g/m*3 8.2 C 0 km/h
493 02-03-2020 17:00:00 8.1 C 7.57 g/m*3 8.1 C 0 km/h
494 02-03-2020 17:05:00 8 C 7.52 g/m*3 8 C 0 km/h
495 02-03-2020 17:10:00 7.9 C 7.47 g/m*3 7.9 C 0 km/h
496 02-03-2020 17:15:00 7.8 C 7.43 g/m*3 7.8 C 0 km/h
497 02-03-2020 17:20:00 7.7 C 7.38 g/m*3 7.7 C 0 km/h
498 02-03-2020 17:25:00 7.6 C 7.41 g/m*3 7.6 C 0 km/h
499 02-03-2020 17:30:00 7.6 C 7.41 g/m*3 7.6 C 0 km/h
500 02-03-2020 17:35:00 7.5 C 7.36 g/m*3 7.5 C 0 km/h
Sensor: Nr:Datum:Temp:Abs-Feuchte:Windchill:Wind:
Aussen-T/F 501 02-03-2020 17:40:00 7.4 C 7.4 g/m*3 7.4 C 0 km/h
502 02-03-2020 17:45:00 7.4 C 7.4 g/m*3 7.4 C 0 km/h
503 02-03-2020 17:50:00 7.3 C 7.35 g/m*3 7.3 C 0 km/h
504 02-03-2020 17:55:00 7.3 C 7.35 g/m*3 7.3 C 0 km/h
505 02-03-2020 18:00:00 7.2 C 7.3 g/m*3 7.2 C 0 km/h
506 02-03-2020 18:05:00 7.2 C 7.3 g/m*3 7.2 C 0 km/h
507 02-03-2020 18:10:00 7.2 C 7.3 g/m*3 7.2 C 0 km/h
508 02-03-2020 18:15:00 7.1 C 7.25 g/m*3 7.1 C 0 km/h
509 02-03-2020 18:20:00 7.1 C 7.25 g/m*3 7.1 C 0 km/h
510 02-03-2020 18:25:00 7 C 7.28 g/m*3 7 C 0 km/h
511 02-03-2020 18:30:00 7 C 7.28 g/m*3 7 C 0 km/h
512 02-03-2020 18:35:00 6.9 C 7.24 g/m*3 6.9 C 0 km/h
513 02-03-2020 18:40:00 6.9 C 7.24 g/m*3 6.9 C 0 km/h
514 02-03-2020 18:45:00 6.8 C 7.19 g/m*3 6.8 C 0 km/h
515 02-03-2020 18:50:00 6.8 C 7.19 g/m*3 6.8 C 0 km/h
516 02-03-2020 18:55:00 6.7 C 7.14 g/m*3 6.7 C 0 km/h
517 02-03-2020 19:00:00 6.7 C 7.14 g/m*3 6.7 C 0 km/h
518 02-03-2020 19:05:00 6.7 C 7.14 g/m*3 6.7 C 0 km/h
519 02-03-2020 19:10:00 6.6 C 7.1 g/m*3 6.6 C 0 km/h
520 02-03-2020 19:15:00 6.6 C 7.1 g/m*3 6.6 C 0 km/h
521 02-03-2020 19:20:00 6.6 C 7.1 g/m*3 6.6 C 0 km/h
522 02-03-2020 19:25:00 6.5 C 7.12 g/m*3 6.5 C 0 km/h
523 02-03-2020 19:30:00 6.5 C 7.12 g/m*3 6.5 C 0 km/h
524 02-03-2020 19:35:00 6.5 C 7.12 g/m*3 6.5 C 0 km/h
525 02-03-2020 19:40:00 6.5 C 7.12 g/m*3 6.5 C 0 km/h
Sensor: Nr:Datum:Temp:Abs-Feuchte:Windchill:Wind:
Aussen-T/F 526 02-03-2020 19:45:00 6.4 C 7.08 g/m*3 6.4 C 0 km/h
527 02-03-2020 19:50:00 6.4 C 7.08 g/m*3 6.4 C 0 km/h
528 02-03-2020 19:55:00 6.4 C 7.08 g/m*3 6.4 C 0 km/h
529 02-03-2020 20:00:00 6.4 C 7.08 g/m*3 6.4 C 0 km/h
530 02-03-2020 20:05:00 6.4 C 7.08 g/m*3 6.4 C 0 km/h
531 02-03-2020 20:10:00 6.4 C 7.08 g/m*3 6.4 C 0 km/h
532 02-03-2020 20:15:00 6.4 C 7.08 g/m*3 6.4 C 0 km/h
533 02-03-2020 20:20:00 6.4 C 7.08 g/m*3 6.4 C 0 km/h
534 02-03-2020 20:25:00 6.4 C 7.08 g/m*3 6.4 C 0 km/h
535 02-03-2020 20:30:00 6.4 C 7.08 g/m*3 6.4 C 0 km/h
536 02-03-2020 20:35:00 6.3 C 7.03 g/m*3 6.3 C 0 km/h
537 02-03-2020 20:40:00 6.3 C 7.03 g/m*3 6.3 C 0 km/h
538 02-03-2020 20:45:00 6.3 C 7.03 g/m*3 6.3 C 0 km/h
539 02-03-2020 20:50:00 6.3 C 7.03 g/m*3 6.3 C 0 km/h
540 02-03-2020 20:55:00 6.3 C 7.03 g/m*3 6.3 C 0 km/h
541 02-03-2020 21:00:00 6.3 C 7.03 g/m*3 6.3 C 0 km/h
542 02-03-2020 21:05:00 6.3 C 7.03 g/m*3 6.3 C 0 km/h
543 02-03-2020 21:10:00 6.3 C 7.03 g/m*3 6.3 C 0 km/h
544 02-03-2020 21:15:00 6.2 C 6.99 g/m*3 6.2 C 0 km/h
545 02-03-2020 21:20:00 6.2 C 6.99 g/m*3 6.2 C 0 km/h
546 02-03-2020 21:25:00 6.2 C 6.99 g/m*3 6.2 C 0 km/h
547 02-03-2020 21:30:00 6.2 C 6.99 g/m*3 6.2 C 0 km/h
548 02-03-2020 21:35:00 6.2 C 6.99 g/m*3 6.2 C 0 km/h
549 02-03-2020 21:40:00 6.2 C 6.99 g/m*3 6.2 C 0 km/h
550 02-03-2020 21:45:00 6.2 C 7.06 g/m*3 6.2 C 0 km/h
Sensor: Nr:Datum:Temp:Abs-Feuchte:Windchill:Wind:
Aussen-T/F 551 02-03-2020 21:50:00 6.2 C 7.06 g/m*3 6.2 C 0 km/h
552 02-03-2020 21:55:00 6.2 C 7.06 g/m*3 6.2 C 0 km/h
553 02-03-2020 22:00:00 6.2 C 7.06 g/m*3 6.2 C 0 km/h
554 02-03-2020 22:05:00 6.1 C 7.01 g/m*3 6.1 C 0 km/h
555 02-03-2020 22:10:00 6.1 C 7.01 g/m*3 6.1 C 0 km/h
556 02-03-2020 22:15:00 6.2 C 7.06 g/m*3 6.2 C 0 km/h
557 02-03-2020 22:20:00 6.1 C 7.01 g/m*3 6.1 C 0 km/h
558 02-03-2020 22:25:00 6.2 C 7.06 g/m*3 6.2 C 0 km/h
559 02-03-2020 22:30:00 6.2 C 7.06 g/m*3 6.2 C 0 km/h
560 02-03-2020 22:35:00 6.2 C 7.06 g/m*3 6.2 C 0 km/h
561 02-03-2020 22:40:00 6.2 C 7.06 g/m*3 6.2 C 0 km/h
562 02-03-2020 22:45:00 6.2 C 7.06 g/m*3 6.2 C 0 km/h
563 02-03-2020 22:50:00 6.1 C 7.01 g/m*3 6.1 C 0 km/h
564 02-03-2020 22:55:00 6.1 C 7.01 g/m*3 6.1 C 3.2 km/h
565 02-03-2020 23:00:00 6.1 C 7.01 g/m*3 6.1 C 4.8 km/h
566 02-03-2020 23:05:00 6.1 C 7.01 g/m*3 6.1 C 0 km/h
567 02-03-2020 23:10:00 6 C 6.97 g/m*3 6 C 1.6 km/h
568 02-03-2020 23:15:00 6 C 6.97 g/m*3 6 C 0 km/h
569 02-03-2020 23:20:00 5.9 C 6.92 g/m*3 5.9 C 0 km/h
570 02-03-2020 23:25:00 5.9 C 6.92 g/m*3 5.9 C 1.6 km/h
571 02-03-2020 23:30:00 5.9 C 6.92 g/m*3 5.9 C 1.6 km/h
572 02-03-2020 23:35:00 5.9 C 6.92 g/m*3 5.9 C 0 km/h
573 02-03-2020 23:40:00 5.9 C 6.92 g/m*3 5.9 C 1.6 km/h
574 02-03-2020 23:45:00 5.9 C 6.92 g/m*3 5.9 C 3.2 km/h
575 02-03-2020 23:50:00 5.9 C 6.92 g/m*3 4.63 C 6.4 km/h
Sensor: Nr:Datum:Temp:Abs-Feuchte:Windchill:Wind:
Aussen-T/F 576 02-03-2020 23:55:00 5.9 C 6.92 g/m*3 5.9 C 1.6 km/h
577 03-03-2020 00:00:00 5.9 C 6.92 g/m*3 5.9 C 0 km/h
578 03-03-2020 00:05:00 5.9 C 6.92 g/m*3 5.9 C 1.6 km/h
579 03-03-2020 00:10:00 5.9 C 6.92 g/m*3 3.8 C 9.7 km/h
580 03-03-2020 00:15:00 5.9 C 6.92 g/m*3 4.63 C 6.4 km/h
581 03-03-2020 00:20:00 5.8 C 6.88 g/m*3 4.52 C 6.4 km/h
582 03-03-2020 00:25:00 5.8 C 6.88 g/m*3 4.52 C 6.4 km/h
583 03-03-2020 00:30:00 5.8 C 6.88 g/m*3 5.8 C 4.8 km/h
584 03-03-2020 00:35:00 5.7 C 6.83 g/m*3 5.7 C 1.6 km/h
585 03-03-2020 00:40:00 5.7 C 6.83 g/m*3 5.7 C 1.6 km/h
586 03-03-2020 00:45:00 5.7 C 6.83 g/m*3 4.4 C 6.4 km/h
587 03-03-2020 00:50:00 5.7 C 6.83 g/m*3 5.7 C 1.6 km/h
588 03-03-2020 00:55:00 5.7 C 6.83 g/m*3 5.7 C 3.2 km/h
589 03-03-2020 01:00:00 5.7 C 6.83 g/m*3 5.7 C 3.2 km/h
590 03-03-2020 01:05:00 5.7 C 6.83 g/m*3 5.7 C 4.8 km/h
591 03-03-2020 01:10:00 5.7 C 6.83 g/m*3 3.93 C 8.1 km/h
592 03-03-2020 01:15:00 5.7 C 6.83 g/m*3 3.23 C 11.3 km/h
593 03-03-2020 01:20:00 5.7 C 6.83 g/m*3 3.23 C 11.3 km/h
594 03-03-2020 01:25:00 5.8 C 6.81 g/m*3 3.07 C 12.9 km/h
595 03-03-2020 01:30:00 5.8 C 6.81 g/m*3 3.36 C 11.3 km/h
596 03-03-2020 01:35:00 5.7 C 6.69 g/m*3 2.03 C 19.3 km/h
597 03-03-2020 01:40:00 5.5 C 6.53 g/m*3 1.99 C 17.7 km/h
598 03-03-2020 01:45:00 5.4 C 6.49 g/m*3 1.86 C 17.7 km/h
599 03-03-2020 01:50:00 5.3 C 6.45 g/m*3 2.75 C 11.3 km/h
600 03-03-2020 01:55:00 5.3 C 6.45 g/m*3 5.3 C 4.8 km/h
Sensor: Nr:Datum:Temp:Abs-Feuchte:Windchill:Wind:
Aussen-T/F 601 03-03-2020 02:00:00 5.3 C 6.45 g/m*3 3.08 C 9.7 km/h
602 03-03-2020 02:05:00 5.3 C 6.45 g/m*3 3.08 C 9.7 km/h
603 03-03-2020 02:10:00 5.3 C 6.45 g/m*3 3.46 C 8.1 km/h
604 03-03-2020 02:15:00 5.2 C 6.4 g/m*3 3.82 C 6.4 km/h
605 03-03-2020 02:20:00 5.2 C 6.4 g/m*3 5.2 C 3.2 km/h
606 03-03-2020 02:25:00 5.1 C 6.36 g/m*3 3.23 C 8.1 km/h
607 03-03-2020 02:30:00 5.1 C 6.22 g/m*3 2.84 C 9.7 km/h
608 03-03-2020 02:35:00 5.2 C 6.27 g/m*3 3.82 C 6.4 km/h
609 03-03-2020 02:40:00 5.2 C 6.2 g/m*3 3.34 C 8.1 km/h
610 03-03-2020 02:45:00 5.2 C 6.2 g/m*3 2.63 C 11.3 km/h
611 03-03-2020 02:50:00 5.2 C 6.2 g/m*3 5.2 C 3.2 km/h
612 03-03-2020 02:55:00 5.1 C 6.09 g/m*3 5.1 C 4.8 km/h
613 03-03-2020 03:00:00 5.1 C 6.16 g/m*3 5.1 C 4.8 km/h
614 03-03-2020 03:05:00 4.9 C 6.14 g/m*3 4.9 C 3.2 km/h
615 03-03-2020 03:10:00 4.8 C 6.04 g/m*3 4.8 C 4.8 km/h
616 03-03-2020 03:15:00 4.7 C 6.06 g/m*3 2.76 C 8.1 km/h
617 03-03-2020 03:20:00 4.5 C 5.85 g/m*3 1.79 C 11.3 km/h
618 03-03-2020 03:25:00 4.4 C 5.81 g/m*3 4.4 C 1.6 km/h
619 03-03-2020 03:30:00 4.4 C 5.88 g/m*3 2.9 C 6.4 km/h
620 03-03-2020 03:35:00 4.3 C 5.84 g/m*3 4.3 C 3.2 km/h
621 03-03-2020 03:40:00 4.2 C 5.8 g/m*3 4.2 C 4.8 km/h
622 03-03-2020 03:45:00 4.1 C 5.82 g/m*3 4.1 C 4.8 km/h
623 03-03-2020 03:50:00 3.9 C 5.75 g/m*3 3.9 C 4.8 km/h
624 03-03-2020 03:55:00 3.9 C 5.75 g/m*3 2.32 C 6.4 km/h
625 03-03-2020 04:00:00 3.8 C 5.71 g/m*3 2.21 C 6.4 km/h
Sensor: Nr:Datum:Temp:Abs-Feuchte:Windchill:Wind:
Aussen-T/F 626 03-03-2020 04:05:00 3.7 C 5.73 g/m*3 3.7 C 4.8 km/h
627 03-03-2020 04:10:00 3.7 C 5.73 g/m*3 3.7 C 4.8 km/h
628 03-03-2020 04:15:00 3.6 C 5.69 g/m*3 1.98 C 6.4 km/h
629 03-03-2020 04:20:00 3.6 C 5.69 g/m*3 1.98 C 6.4 km/h
630 03-03-2020 04:25:00 3.6 C 5.69 g/m*3 1.98 C 6.4 km/h
631 03-03-2020 04:30:00 3.6 C 5.69 g/m*3 1.98 C 6.4 km/h
632 03-03-2020 04:35:00 3.6 C 5.69 g/m*3 1.46 C 8.1 km/h
633 03-03-2020 04:40:00 3.7 C 5.73 g/m*3 2.09 C 6.4 km/h
634 03-03-2020 04:45:00 3.7 C 5.73 g/m*3 3.7 C 4.8 km/h
635 03-03-2020 04:50:00 3.6 C 5.69 g/m*3 1.98 C 6.4 km/h
636 03-03-2020 04:55:00 3.6 C 5.76 g/m*3 1.46 C 8.1 km/h
637 03-03-2020 05:00:00 3.6 C 5.69 g/m*3 1.06 C 9.7 km/h
638 03-03-2020 05:05:00 3.6 C 5.69 g/m*3 0.7 C 11.3 km/h
639 03-03-2020 05:10:00 3.6 C 5.69 g/m*3 3.6 C 4.8 km/h
640 03-03-2020 05:15:00 3.6 C 5.69 g/m*3 1.06 C 9.7 km/h
641 03-03-2020 05:20:00 3.5 C 5.66 g/m*3 1.34 C 8.1 km/h
642 03-03-2020 05:25:00 3.4 C 5.62 g/m*3 3.4 C 4.8 km/h
643 03-03-2020 05:30:00 3.3 C 5.64 g/m*3 1.11 C 8.1 km/h
644 03-03-2020 05:35:00 3.3 C 5.64 g/m*3 3.3 C 4.8 km/h
645 03-03-2020 05:40:00 3.3 C 5.64 g/m*3 1.11 C 8.1 km/h
646 03-03-2020 05:45:00 3.3 C 5.64 g/m*3 3.3 C 4.8 km/h
647 03-03-2020 05:50:00 3.3 C 5.64 g/m*3 1.63 C 6.4 km/h
648 03-03-2020 05:55:00 3.2 C 5.6 g/m*3 3.2 C 3.2 km/h
649 03-03-2020 06:00:00 3.2 C 5.6 g/m*3 3.2 C 4.8 km/h
650 03-03-2020 06:05:00 3.2 C 5.6 g/m*3 3.2 C 4.8 km/h
Sensor: Nr:Datum:Temp:Abs-Feuchte:Windchill:Wind:
Aussen-T/F 651 03-03-2020 06:10:00 3.3 C 5.7 g/m*3 1.63 C 6.4 km/h
652 03-03-2020 06:15:00 3.3 C 5.7 g/m*3 1.11 C 8.1 km/h
653 03-03-2020 06:20:00 3.4 C 5.68 g/m*3 1.23 C 8.1 km/h
654 03-03-2020 06:25:00 3.4 C 5.68 g/m*3 3.4 C 4.8 km/h
655 03-03-2020 06:30:00 3.4 C 5.68 g/m*3 3.4 C 4.8 km/h
656 03-03-2020 06:35:00 3.3 C 5.64 g/m*3 1.63 C 6.4 km/h
657 03-03-2020 06:40:00 3.3 C 5.64 g/m*3 3.3 C 4.8 km/h
658 03-03-2020 06:45:00 3.2 C 5.6 g/m*3 0.99 C 8.1 km/h
659 03-03-2020 06:50:00 3.2 C 5.6 g/m*3 3.2 C 4.8 km/h
660 03-03-2020 06:55:00 3.2 C 5.6 g/m*3 -0.1 C 12.9 km/h
661 03-03-2020 07:00:00 3.2 C 5.6 g/m*3 0.58 C 9.7 km/h
662 03-03-2020 07:05:00 3.3 C 5.64 g/m*3 3.3 C 4.8 km/h
663 03-03-2020 07:10:00 3.3 C 5.64 g/m*3 0.34 C 11.3 km/h
664 03-03-2020 07:15:00 3.3 C 5.64 g/m*3 1.11 C 8.1 km/h
665 03-03-2020 07:20:00 3.3 C 5.64 g/m*3 1.63 C 6.4 km/h
666 03-03-2020 07:25:00 3.3 C 5.64 g/m*3 1.11 C 8.1 km/h
667 03-03-2020 07:30:00 3.3 C 5.64 g/m*3 1.63 C 6.4 km/h
668 03-03-2020 07:35:00 3.3 C 5.64 g/m*3 1.63 C 6.4 km/h
669 03-03-2020 07:40:00 3.3 C 5.64 g/m*3 1.63 C 6.4 km/h
670 03-03-2020 07:45:00 3.3 C 5.64 g/m*3 3.3 C 4.8 km/h
671 03-03-2020 07:50:00 3.2 C 5.6 g/m*3 0.58 C 9.7 km/h
672 03-03-2020 07:55:00 3.2 C 5.6 g/m*3 0.99 C 8.1 km/h
673 03-03-2020 08:00:00 3.2 C 5.6 g/m*3 1.51 C 6.4 km/h
674 03-03-2020 08:05:00 3.2 C 5.6 g/m*3 1.51 C 6.4 km/h
675 03-03-2020 08:10:00 3.2 C 5.6 g/m*3 3.2 C 4.8 km/h
Sensor: Nr:Datum:Temp:Abs-Feuchte:Windchill:Wind:
Aussen-T/F 676 03-03-2020 08:15:00 3.2 C 5.6 g/m*3 0.58 C 9.7 km/h
677 03-03-2020 08:20:00 3.3 C 5.64 g/m*3 1.11 C 8.1 km/h
678 03-03-2020 08:25:00 3.4 C 5.68 g/m*3 1.75 C 6.4 km/h
679 03-03-2020 08:30:00 3.5 C 5.72 g/m*3 0.58 C 11.3 km/h
680 03-03-2020 08:35:00 3.7 C 5.8 g/m*3 0.82 C 11.3 km/h
681 03-03-2020 08:40:00 3.8 C 5.77 g/m*3 0.35 C 14.5 km/h
682 03-03-2020 08:45:00 3.8 C 5.77 g/m*3 -0.14 C 17.7 km/h
683 03-03-2020 08:50:00 3.9 C 5.75 g/m*3 0.22 C 16.1 km/h
684 03-03-2020 08:55:00 3.9 C 5.68 g/m*3 0.47 C 14.5 km/h
685 03-03-2020 09:00:00 3.9 C 5.68 g/m*3 1.06 C 11.3 km/h
686 03-03-2020 09:05:00 3.9 C 5.68 g/m*3 1.06 C 11.3 km/h
687 03-03-2020 09:10:00 3.9 C 5.68 g/m*3 0.47 C 14.5 km/h
688 03-03-2020 09:15:00 3.9 C 5.68 g/m*3 2.32 C 6.4 km/h
689 03-03-2020 09:20:00 3.8 C 5.65 g/m*3 0.94 C 11.3 km/h
690 03-03-2020 09:25:00 3.9 C 5.68 g/m*3 1.41 C 9.7 km/h
691 03-03-2020 09:30:00 3.9 C 5.68 g/m*3 0.75 C 12.9 km/h
692 03-03-2020 09:35:00 4.1 C 5.76 g/m*3 1.31 C 11.3 km/h
693 03-03-2020 09:40:00 4.1 C 5.76 g/m*3 2.55 C 6.4 km/h
694 03-03-2020 09:45:00 4.2 C 5.8 g/m*3 1.12 C 12.9 km/h
695 03-03-2020 09:50:00 4.3 C 5.84 g/m*3 0.97 C 14.5 km/h
696 03-03-2020 09:55:00 4.4 C 5.81 g/m*3 1.09 C 14.5 km/h
697 03-03-2020 10:00:00 4.7 C 5.86 g/m*3 1.46 C 14.5 km/h
698 03-03-2020 10:05:00 4.8 C 5.83 g/m*3 1.34 C 16.1 km/h
699 03-03-2020 10:10:00 5.1 C 5.95 g/m*3 2.22 C 12.9 km/h
700 03-03-2020 10:15:00 5.3 C 5.89 g/m*3 1.74 C 17.7 km/h
Sensor: Nr:Datum:Temp:Abs-Feuchte:Windchill:Wind:
Aussen-T/F 701 03-03-2020 10:20:00 5.3 C 5.82 g/m*3 2.2 C 14.5 km/h
702 03-03-2020 10:25:00 5.4 C 5.86 g/m*3 3.2 C 9.7 km/h
703 03-03-2020 10:30:00 5.4 C 5.86 g/m*3 2.32 C 14.5 km/h
704 03-03-2020 10:35:00 5.5 C 5.9 g/m*3 2.99 C 11.3 km/h
705 03-03-2020 10:40:00 5.5 C 5.76 g/m*3 2.2 C 16.1 km/h
706 03-03-2020 10:45:00 5.4 C 5.72 g/m*3 2.08 C 16.1 km/h
707 03-03-2020 10:50:00 5.3 C 5.61 g/m*3 0.99 C 24.1 km/h
708 03-03-2020 10:55:00 5.2 C 5.65 g/m*3 1.83 C 16.1 km/h
709 03-03-2020 11:00:00 5.2 C 5.65 g/m*3 2.63 C 11.3 km/h
710 03-03-2020 11:05:00 5.3 C 5.75 g/m*3 2.46 C 12.9 km/h
711 03-03-2020 11:10:00 5.3 C 5.75 g/m*3 2.75 C 11.3 km/h
712 03-03-2020 11:15:00 5.4 C 5.79 g/m*3 2.32 C 14.5 km/h
713 03-03-2020 11:20:00 5.4 C 5.86 g/m*3 3.58 C 8.1 km/h
714 03-03-2020 11:25:00 5.5 C 5.9 g/m*3 3.7 C 8.1 km/h
715 03-03-2020 11:30:00 5.4 C 5.79 g/m*3 4.06 C 6.4 km/h
716 03-03-2020 11:35:00 5.4 C 5.79 g/m*3 2.58 C 12.9 km/h
717 03-03-2020 11:40:00 5.5 C 5.9 g/m*3 3.7 C 8.1 km/h
718 03-03-2020 11:45:00 5.6 C 5.94 g/m*3 3.81 C 8.1 km/h
719 03-03-2020 11:50:00 5.7 C 5.91 g/m*3 3.23 C 11.3 km/h
720 03-03-2020 11:55:00 5.7 C 5.84 g/m*3 3.56 C 9.7 km/h
721 03-03-2020 12:00:00 5.8 C 5.95 g/m*3 4.05 C 8.1 km/h
722 03-03-2020 12:05:00 5.8 C 5.95 g/m*3 3.36 C 11.3 km/h
723 03-03-2020 12:10:00 5.9 C 5.91 g/m*3 3.48 C 11.3 km/h
724 03-03-2020 12:15:00 6 C 5.95 g/m*3 3.92 C 9.7 km/h
725 03-03-2020 12:20:00 6.1 C 5.99 g/m*3 4.86 C 6.4 km/h
Sensor: Nr:Datum:Temp:Abs-Feuchte:Windchill:Wind:
Aussen-T/F 726 03-03-2020 12:25:00 6.2 C 6.03 g/m*3 4.52 C 8.1 km/h
727 03-03-2020 12:30:00 6.3 C 6.07 g/m*3 4.64 C 8.1 km/h
728 03-03-2020 12:35:00 6.4 C 6.04 g/m*3 5.21 C 6.4 km/h
729 03-03-2020 12:40:00 6.5 C 6.07 g/m*3 3.92 C 12.9 km/h
730 03-03-2020 12:45:00 6.6 C 6.11 g/m*3 4.32 C 11.3 km/h
731 03-03-2020 12:50:00 6.6 C 6.04 g/m*3 4.99 C 8.1 km/h
732 03-03-2020 12:55:00 6.6 C 5.96 g/m*3 4.04 C 12.9 km/h
733 03-03-2020 13:00:00 6.5 C 5.92 g/m*3 4.2 C 11.3 km/h
734 03-03-2020 13:05:00 6.6 C 5.89 g/m*3 4.04 C 12.9 km/h
735 03-03-2020 13:10:00 6.7 C 5.93 g/m*3 4.75 C 9.7 km/h
736 03-03-2020 13:15:00 6.9 C 6 g/m*3 4.99 C 9.7 km/h
737 03-03-2020 13:20:00 7.2 C 5.97 g/m*3 4.77 C 12.9 km/h
738 03-03-2020 13:25:00 7.4 C 6.12 g/m*3 5.28 C 11.3 km/h
739 03-03-2020 13:30:00 7.6 C 6.12 g/m*3 5.26 C 12.9 km/h
740 03-03-2020 13:35:00 7.7 C 6.08 g/m*3 6.71 C 6.4 km/h
741 03-03-2020 13:40:00 7.7 C 6 g/m*3 5.65 C 11.3 km/h
742 03-03-2020 13:45:00 7.9 C 6 g/m*3 5.89 C 11.3 km/h
743 03-03-2020 13:50:00 8 C 6.12 g/m*3 5.3 C 16.1 km/h
744 03-03-2020 13:55:00 7.8 C 6.04 g/m*3 5.51 C 12.9 km/h
745 03-03-2020 14:00:00 7.4 C 6.04 g/m*3 5.93 C 8.1 km/h
746 03-03-2020 14:05:00 7.2 C 6.28 g/m*3 6.13 C 6.4 km/h
747 03-03-2020 14:10:00 7 C 6.35 g/m*3 5.46 C 8.1 km/h
748 03-03-2020 14:15:00 6.8 C 6.35 g/m*3 6.8 C 4.8 km/h
749 03-03-2020 14:20:00 6.7 C 6.38 g/m*3 6.7 C 1.6 km/h
750 03-03-2020 14:25:00 6.6 C 6.42 g/m*3 6.6 C 0 km/h
Sensor: Nr:Datum:Temp:Abs-Feuchte:Windchill:Wind:
Aussen-T/F 751 03-03-2020 14:30:00 6.5 C 6.37 g/m*3 4.51 C 9.7 km/h
752 03-03-2020 14:35:00 6.3 C 6.22 g/m*3 3.2 C 16.1 km/h
753 03-03-2020 14:40:00 6.1 C 6.21 g/m*3 3.18 C 14.5 km/h
754 03-03-2020 14:45:00 5.9 C 6.27 g/m*3 5.9 C 4.8 km/h
755 03-03-2020 14:50:00 5.8 C 6.23 g/m*3 4.05 C 8.1 km/h
756 03-03-2020 14:55:00 5.8 C 6.23 g/m*3 4.52 C 6.4 km/h
757 03-03-2020 15:00:00 5.7 C 6.26 g/m*3 3.93 C 8.1 km/h
758 03-03-2020 15:05:00 5.6 C 6.22 g/m*3 3.11 C 11.3 km/h
759 03-03-2020 15:10:00 5.4 C 6.07 g/m*3 2.87 C 11.3 km/h
760 03-03-2020 15:15:00 5.4 C 6.14 g/m*3 5.4 C 3.2 km/h
761 03-03-2020 15:20:00 5.6 C 6.22 g/m*3 4.29 C 6.4 km/h
762 03-03-2020 15:25:00 5.8 C 6.23 g/m*3 4.05 C 8.1 km/h
763 03-03-2020 15:30:00 6.1 C 6.36 g/m*3 4.4 C 8.1 km/h
764 03-03-2020 15:35:00 6.4 C 6.48 g/m*3 5.21 C 6.4 km/h
765 03-03-2020 15:40:00 6.6 C 6.42 g/m*3 4.63 C 9.7 km/h
766 03-03-2020 15:45:00 6.8 C 6.35 g/m*3 4.56 C 11.3 km/h
767 03-03-2020 15:50:00 7 C 6.35 g/m*3 7 C 4.8 km/h
768 03-03-2020 15:55:00 7 C 6.28 g/m*3 5.46 C 8.1 km/h
769 03-03-2020 16:00:00 6.9 C 6.31 g/m*3 6.9 C 4.8 km/h
770 03-03-2020 16:05:00 7.2 C 6.36 g/m*3 6.13 C 6.4 km/h
771 03-03-2020 16:10:00 7.4 C 6.36 g/m*3 5.93 C 8.1 km/h
772 03-03-2020 16:15:00 7.7 C 6.49 g/m*3 5.94 C 9.7 km/h
773 03-03-2020 16:20:00 7.7 C 6.32 g/m*3 5.38 C 12.9 km/h
774 03-03-2020 16:25:00 7.6 C 6.2 g/m*3 5.82 C 9.7 km/h
775 03-03-2020 16:30:00 7.5 C 6.24 g/m*3 6.05 C 8.1 km/h
Sensor: Nr:Datum:Temp:Abs-Feuchte:Windchill:Wind:
Aussen-T/F 776 03-03-2020 16:35:00 7.4 C 6.2 g/m*3 6.37 C 6.4 km/h
777 03-03-2020 16:40:00 7.4 C 6.2 g/m*3 7.4 C 4.8 km/h
778 03-03-2020 16:45:00 7.3 C 6.16 g/m*3 7.3 C 4.8 km/h
779 03-03-2020 16:50:00 7.3 C 6.24 g/m*3 6.25 C 6.4 km/h
780 03-03-2020 16:55:00 7.3 C 6.24 g/m*3 7.3 C 4.8 km/h
781 03-03-2020 17:00:00 7.3 C 6.16 g/m*3 5.81 C 8.1 km/h
782 03-03-2020 17:05:00 7.2 C 6.2 g/m*3 7.2 C 3.2 km/h
783 03-03-2020 17:10:00 7.1 C 6.24 g/m*3 5.58 C 8.1 km/h
784 03-03-2020 17:15:00 7.1 C 6.24 g/m*3 7.1 C 4.8 km/h
785 03-03-2020 17:20:00 7.1 C 6.4 g/m*3 7.1 C 4.8 km/h
786 03-03-2020 17:25:00 7 C 6.2 g/m*3 7 C 4.8 km/h
787 03-03-2020 17:30:00 6.9 C 6.16 g/m*3 5.79 C 6.4 km/h
788 03-03-2020 17:35:00 6.9 C 6.08 g/m*3 6.9 C 4.8 km/h
789 03-03-2020 17:40:00 6.9 C 6.24 g/m*3 6.9 C 1.6 km/h
790 03-03-2020 17:45:00 6.9 C 6.24 g/m*3 6.9 C 4.8 km/h
791 03-03-2020 17:50:00 6.9 C 6.24 g/m*3 6.9 C 0 km/h
792 03-03-2020 17:55:00 6.8 C 6.19 g/m*3 6.8 C 0 km/h
793 03-03-2020 18:00:00 6.6 C 6.11 g/m*3 6.6 C 4.8 km/h
794 03-03-2020 18:05:00 6.2 C 6.03 g/m*3 4.98 C 6.4 km/h
795 03-03-2020 18:10:00 5.9 C 5.98 g/m*3 4.63 C 6.4 km/h
796 03-03-2020 18:15:00 5.7 C 5.98 g/m*3 4.4 C 6.4 km/h
797 03-03-2020 18:20:00 5.3 C 5.89 g/m*3 3.94 C 6.4 km/h
798 03-03-2020 18:25:00 5.1 C 5.81 g/m*3 3.71 C 6.4 km/h
799 03-03-2020 18:30:00 4.9 C 5.81 g/m*3 3.48 C 6.4 km/h
800 03-03-2020 18:35:00 4.8 C 5.77 g/m*3 4.8 C 4.8 km/h
Sensor: Nr:Datum:Temp:Abs-Feuchte:Windchill:Wind:
Aussen-T/F 801 03-03-2020 18:40:00 4.6 C 5.76 g/m*3 4.6 C 4.8 km/h
802 03-03-2020 18:45:00 4.4 C 5.75 g/m*3 2.4 C 8.1 km/h
803 03-03-2020 18:50:00 4.3 C 5.71 g/m*3 2.29 C 8.1 km/h
804 03-03-2020 18:55:00 4.2 C 5.73 g/m*3 2.67 C 6.4 km/h
805 03-03-2020 19:00:00 4.1 C 5.7 g/m*3 2.05 C 8.1 km/h
806 03-03-2020 19:05:00 4 C 5.72 g/m*3 4 C 4.8 km/h
807 03-03-2020 19:10:00 3.9 C 5.68 g/m*3 3.9 C 4.8 km/h
808 03-03-2020 19:15:00 3.8 C 5.65 g/m*3 2.21 C 6.4 km/h
809 03-03-2020 19:20:00 3.8 C 5.65 g/m*3 1.7 C 8.1 km/h
810 03-03-2020 19:25:00 3.8 C 5.65 g/m*3 1.7 C 8.1 km/h
811 03-03-2020 19:30:00 3.8 C 5.65 g/m*3 3.8 C 4.8 km/h
812 03-03-2020 19:35:00 3.7 C 5.61 g/m*3 3.7 C 4.8 km/h
813 03-03-2020 19:40:00 3.6 C 5.57 g/m*3 3.6 C 3.2 km/h
814 03-03-2020 19:45:00 3.5 C 5.53 g/m*3 1.86 C 6.4 km/h
815 03-03-2020 19:50:00 3.4 C 5.56 g/m*3 3.4 C 4.8 km/h
816 03-03-2020 19:55:00 3.4 C 5.56 g/m*3 3.4 C 4.8 km/h
817 03-03-2020 20:00:00 3.4 C 5.56 g/m*3 3.4 C 3.2 km/h
818 03-03-2020 20:05:00 3.3 C 5.52 g/m*3 3.3 C 3.2 km/h
819 03-03-2020 20:10:00 3.2 C 5.48 g/m*3 3.2 C 1.6 km/h
820 03-03-2020 20:15:00 3 C 5.41 g/m*3 3 C 3.2 km/h
821 03-03-2020 20:20:00 2.9 C 5.37 g/m*3 2.9 C 1.6 km/h
822 03-03-2020 20:25:00 2.8 C 5.34 g/m*3 2.8 C 1.6 km/h
823 03-03-2020 20:30:00 2.8 C 5.4 g/m*3 2.8 C 4.8 km/h
824 03-03-2020 20:35:00 2.7 C 5.36 g/m*3 2.7 C 0 km/h
825 03-03-2020 20:40:00 2.7 C 5.36 g/m*3 2.7 C 0 km/h
Sensor: Nr:Datum:Temp:Abs-Feuchte:Windchill:Wind:
Aussen-T/F 826 03-03-2020 20:45:00 2.6 C 5.32 g/m*3 2.6 C 0 km/h
827 03-03-2020 20:50:00 2.6 C 5.38 g/m*3 2.6 C 0 km/h
828 03-03-2020 20:55:00 2.6 C 5.38 g/m*3 2.6 C 0 km/h
829 03-03-2020 21:00:00 2.5 C 5.35 g/m*3 2.5 C 0 km/h
830 03-03-2020 21:05:00 2.4 C 5.31 g/m*3 2.4 C 0 km/h
831 03-03-2020 21:10:00 2.3 C 5.27 g/m*3 2.3 C 0 km/h
832 03-03-2020 21:15:00 2.3 C 5.27 g/m*3 2.3 C 0 km/h
833 03-03-2020 21:20:00 2.3 C 5.27 g/m*3 2.3 C 0 km/h
834 03-03-2020 21:25:00 2.3 C 5.27 g/m*3 2.3 C 0 km/h
835 03-03-2020 21:30:00 2.3 C 5.33 g/m*3 2.3 C 0 km/h
836 03-03-2020 21:35:00 2.3 C 5.33 g/m*3 2.3 C 0 km/h
837 03-03-2020 21:40:00 2.3 C 5.33 g/m*3 2.3 C 0 km/h
838 03-03-2020 21:45:00 2.3 C 5.33 g/m*3 2.3 C 0 km/h
839 03-03-2020 21:50:00 2.4 C 5.37 g/m*3 2.4 C 0 km/h
840 03-03-2020 21:55:00 2.4 C 5.37 g/m*3 2.4 C 0 km/h
841 03-03-2020 22:00:00 2.4 C 5.37 g/m*3 2.4 C 0 km/h
842 03-03-2020 22:05:00 2.4 C 5.37 g/m*3 2.4 C 0 km/h
843 03-03-2020 22:10:00 2.4 C 5.37 g/m*3 2.4 C 0 km/h
844 03-03-2020 22:15:00 2.4 C 5.37 g/m*3 2.4 C 0 km/h
845 03-03-2020 22:20:00 2.4 C 5.37 g/m*3 2.4 C 0 km/h
846 03-03-2020 22:25:00 2.4 C 5.37 g/m*3 2.4 C 0 km/h
847 03-03-2020 22:30:00 2.4 C 5.37 g/m*3 2.4 C 0 km/h
848 03-03-2020 22:35:00 2.3 C 5.33 g/m*3 2.3 C 0 km/h
849 03-03-2020 22:40:00 2.3 C 5.33 g/m*3 2.3 C 0 km/h
850 03-03-2020 22:45:00 2.3 C 5.33 g/m*3 2.3 C 0 km/h
Sensor: Nr:Datum:Temp:Abs-Feuchte:Windchill:Wind:
Aussen-T/F 851 03-03-2020 22:50:00 2.2 C 5.29 g/m*3 2.2 C 0 km/h
852 03-03-2020 22:55:00 2.2 C 5.29 g/m*3 2.2 C 0 km/h
853 03-03-2020 23:00:00 2.2 C 5.29 g/m*3 2.2 C 0 km/h
854 03-03-2020 23:05:00 2.2 C 5.35 g/m*3 2.2 C 4.8 km/h
855 03-03-2020 23:10:00 2.3 C 5.39 g/m*3 2.3 C 3.2 km/h
856 03-03-2020 23:15:00 2.4 C 5.42 g/m*3 0.59 C 6.4 km/h
857 03-03-2020 23:20:00 2.6 C 5.5 g/m*3 0.82 C 6.4 km/h
858 03-03-2020 23:25:00 2.8 C 5.57 g/m*3 2.8 C 3.2 km/h
859 03-03-2020 23:30:00 2.8 C 5.57 g/m*3 2.8 C 3.2 km/h
860 03-03-2020 23:35:00 2.9 C 5.61 g/m*3 2.9 C 4.8 km/h
861 03-03-2020 23:40:00 2.9 C 5.61 g/m*3 2.9 C 3.2 km/h
862 03-03-2020 23:45:00 3 C 5.65 g/m*3 3 C 3.2 km/h
863 03-03-2020 23:50:00 3 C 5.65 g/m*3 3 C 3.2 km/h
864 03-03-2020 23:55:00 3 C 5.59 g/m*3 3 C 4.8 km/h

Legende:
   Min
   Max


Maximal/Minimal-Werte vom 01.03.2020 - 03.03.2020

Sensor Min Max Avg
Temp
(Aussen-T/F)
2.1 °C
02-03-2020  05:55:00
12.3 °C
02-03-2020  13:45:00
6.17 °C
Abs-Feuchte
(Aussen-T/F)
5.27 g/m*3
03-03-2020  21:10:00
7.85 g/m*3
02-03-2020  16:00:00
6.36 g/m*3
Windchill
(Aussen-T/F)
-0.14 C
03-03-2020  08:45:00
12.3 C
02-03-2020  13:45:00
5 C

Die Daten stammen von einer Davis Vantage Pro 2 Wetter-Station und werden unter Linux mit der Software wview2wettercgi und aufbereitet. Alle Angaben erfolgen ohne Gewähr für ihre Vollständigkeit oder Richtigkeit.
Kontakt: Rainer Krienke krienke@uni-koblenz.de . Meine Webseiten an der Uni Koblenz oder privat.
Version: $Revision: 0.78 $